SHMÚ vydal meteorologické výstrahy na High temperatures Display warnings

METAR

Aeronautical MET Report METAR

METAR description (Slovak)

19.08.2019 - 09:30 UTC

METAR LZIB 190930Z 32008KT 270V350 9999 FEW038 28/18 Q1016 NOSIG=
METAR LZKZ 190930Z 18008KT CAVOK 26/17 Q1018 NOSIG=
METAR LZPP 190930Z 17005KT 120V240 9999 FEW032 27/17 Q1016=
METAR LZSL 190930Z VRB02KT 9999 FEW040 27/17 Q1017=
METAR LZTT 190930Z 23007KT 180V280 CAVOK 27/14 Q1019 NOSIG=
METAR LZZI 190930Z VRB02KT 9999 FEW040 26/17 Q1016=

19.08.2019 - 09:00 UTC

METAR LZIB 190900Z 30010KT 270V330 9999 FEW032 26/18 Q1016 NOSIG=
METAR LZKZ 190900Z 17007KT 130V200 CAVOK 25/17 Q1018 NOSIG=
METAR LZPP 190900Z 22006KT 180V250 9999 FEW031 26/17 Q1016=
METAR LZSL 190900Z VRB01KT 9999 FEW035 26/17 Q1017=
METAR LZTT 190900Z 15006KT 110V260 CAVOK 27/14 Q1019 BECMG 24010KT=
METAR LZZI 190900Z 26003KT 220V310 9999 FEW036 26/17 Q1016=

19.08.2019 - 09:00 UTC

METAR LZMC 190900Z 31010KT 9999 SCT025 SCT028 26/18
Q1017=
METAR LZPW 190900Z 02004KT CAVOK 24/17 Q1018=

 

 

skok na menu ↑


skok na začiatok stránky ↑